Tropical Cyclones
[Index]
Main Index Home Page Stock Weather Photos Extreme Storms Discussion Storm News and Storm Chasing Reports Tropical Cyclones / Hurricanes / Typhoons Weather Data and Links Wild Fires / Bushfires Weather Observation Techniques Weather Picture Catalogue Tornado Pictures and Reports Stock Video Footage and DVDs for sale
Season 1986-1987 Tropical Cyclone DAODO Track Map
Season 1986-1987 Summaries: [BoM-AU] [JTWC-AU] [JTWC-SIO] [JTWC-SPAC] [JTWC-SH]
<<- Previous TC | JTWC 1986-1987 Season | Next TC ->>

click for intensity scale information  Lat/long Grid: Show Hide

 Date Labels: Show Hide

Joint Typhoon Warning Centre Cyclone Data

Name: DAODO

02 Mar 1987 12:00 UTC to 15 Mar 1987 12:00 UTC

    date/time    lat    long     hPa   cat  kts
1987-03-02 12   13.4    72.3                  25          
1987-03-02 18   13.6    71.8                  30          
1987-03-03 00   13.7    71.5                  30          
1987-03-03 06   13.5    71.3                  35          
1987-03-03 12   13.2    71.4                  35          
1987-03-03 18   12.9    71.5            1     40          
1987-03-04 00   12.5    71.5            1     40          
1987-03-04 06   12.6    71.7            1     40          
1987-03-04 12   13.0    72.1            1     40          
1987-03-04 18   13.0    72.5            1     40          
1987-03-05 00   13.0    72.7            1     40          
1987-03-05 06   13.2    73.4            1     40          
1987-03-05 12   13.5    74.3            1     40          
1987-03-05 18   13.7    75.1            1     40          
1987-03-06 00   13.7    75.5            1     40          
1987-03-06 06   13.5    75.7                  35          
1987-03-06 12   13.0    75.6                  35          
1987-03-06 18   12.4    75.9                  35          
1987-03-07 00   12.1    76.7                  35          
1987-03-07 06   12.0    77.0                  35          
1987-03-07 12   12.0    76.6                  35          
1987-03-07 18   11.9    76.1                  35          
1987-03-08 00   12.1    75.9            1     40          
1987-03-08 06   12.5    75.5            1     45          
1987-03-08 12   12.7    75.1            2     55          
1987-03-08 18   12.9    74.6            2     65          
1987-03-09 00   13.4    74.0            2     70          
1987-03-09 06   14.0    73.5            3     75          
1987-03-09 12   14.5    73.1            2     70          
1987-03-09 18   14.8    72.8            2     65          
1987-03-10 00   15.3    72.4            2     65          
1987-03-10 06   16.0    72.0            2     65          
1987-03-10 12   16.4    71.9            2     65          
1987-03-10 18   16.7    71.8            2     65          
1987-03-11 00   17.0    71.7            2     65          
1987-03-11 06   17.3    71.8            2     65          
1987-03-11 12   17.7    72.0            2     65          
1987-03-11 18   18.2    72.4            2     65          
1987-03-12 00   18.8    72.9            2     65          
1987-03-12 06   19.6    73.7            2     65          
1987-03-12 12   20.1    74.4            2     55          
1987-03-12 18   21.1    75.0            1     45          
1987-03-13 00   22.1    75.3            1     50          
1987-03-13 06   22.9    75.2            2     55          
1987-03-13 12   23.6    74.9            1     50          
1987-03-13 18   24.2    74.4            1     45          
1987-03-14 00   24.6    73.9            1     45          
1987-03-14 06   25.1    73.5            1     40          
1987-03-14 12   25.5    73.4            1     40          
1987-03-14 18   26.1    73.4            1     40          
1987-03-15 00   27.2    73.5            1     40          
1987-03-15 06   28.5    73.4                  35          
1987-03-15 12   29.7    73.3                  35          
Winds are 1-min average.

Tropical cyclone tracks developed by Michael Bath using data from the Joint Typhoon Warning Centre Best Tracks and Google Maps.


[Australian Severe Weather index] [Copyright Notice] [Email Contacts] [Search This Site] [Privacy Policy]
Document: tropical_cyclone_daodo.htm Updated: 18 September 2016